createdAt,value
2018-10-18T00:00:18.743Z,36.70
2018-10-18T00:02:47.619Z,36.80
2018-10-18T00:05:16.899Z,36.80
2018-10-18T00:07:45.766Z,36.80
2018-10-18T00:10:15.689Z,36.70
2018-10-18T00:12:45.159Z,36.70
2018-10-18T00:15:13.997Z,36.70
2018-10-18T00:17:44.851Z,36.80
2018-10-18T00:20:14.583Z,36.90
2018-10-18T00:22:45.107Z,37.00
2018-10-18T00:25:14.571Z,36.90
2018-10-18T00:27:43.686Z,37.00
2018-10-18T00:30:13.888Z,37.00
2018-10-18T00:32:43.538Z,36.90
2018-10-18T00:35:12.728Z,36.80
2018-10-18T00:37:42.718Z,36.90
2018-10-18T00:40:12.463Z,36.90
2018-10-18T00:42:41.914Z,36.90
2018-10-18T00:45:11.069Z,36.90
2018-10-18T00:47:41.358Z,36.90
2018-10-18T00:50:11.378Z,37.00
2018-10-18T00:52:40.307Z,37.20
2018-10-18T00:55:10.615Z,37.50
2018-10-18T00:57:40.306Z,37.10
2018-10-18T01:00:11.145Z,37.10
2018-10-18T01:02:39.934Z,37.00
2018-10-18T01:05:08.795Z,37.00
2018-10-18T01:07:37.687Z,36.90
2018-10-18T01:10:06.547Z,37.00
2018-10-18T01:12:37.297Z,36.90
2018-10-18T01:15:07.475Z,36.90
2018-10-18T01:17:36.341Z,36.90
2018-10-18T01:20:06.299Z,37.10
2018-10-18T01:22:35.082Z,37.00
2018-10-18T01:25:04.145Z,37.00
2018-10-18T01:27:33.033Z,37.10
2018-10-18T01:30:02.043Z,37.10
2018-10-18T01:32:30.875Z,37.10
2018-10-18T01:35:00.118Z,37.10
2018-10-18T01:37:30.337Z,37.10
2018-10-18T01:40:01.374Z,37.10
2018-10-18T01:42:31.547Z,37.20
2018-10-18T01:45:00.404Z,37.10
2018-10-18T01:47:29.260Z,37.20
2018-10-18T01:49:58.151Z,37.20
2018-10-18T01:52:27.003Z,37.20
2018-10-18T01:54:55.915Z,37.20
2018-10-18T01:57:24.763Z,37.30
2018-10-18T01:59:53.656Z,37.30
2018-10-18T02:02:23.343Z,37.20
2018-10-18T02:04:52.591Z,37.20
2018-10-18T02:07:21.966Z,37.20
2018-10-18T02:09:50.874Z,37.30
2018-10-18T02:12:21.311Z,37.20
2018-10-18T02:14:50.198Z,37.20
2018-10-18T02:17:19.064Z,37.10
2018-10-18T02:19:47.930Z,37.20
2018-10-18T02:22:16.801Z,37.30
2018-10-18T02:24:45.731Z,37.30
2018-10-18T02:27:14.627Z,37.30
2018-10-18T02:29:43.455Z,37.20
2018-10-18T02:32:12.303Z,37.30
2018-10-18T02:34:43.521Z,37.30
2018-10-18T02:37:16.708Z,37.20
2018-10-18T02:39:45.644Z,37.30
2018-10-18T02:42:14.640Z,37.40
2018-10-18T02:44:43.814Z,37.30
2018-10-18T02:47:12.695Z,37.40
2018-10-18T02:49:42.043Z,37.50
2018-10-18T02:52:11.385Z,37.40
2018-10-18T02:54:40.327Z,37.30
2018-10-18T02:57:09.287Z,37.30
2018-10-18T02:59:39.027Z,37.30
2018-10-18T03:02:09.008Z,37.30
2018-10-18T03:04:38.116Z,37.30
2018-10-18T03:07:07.129Z,37.30
2018-10-18T03:09:35.958Z,37.30
2018-10-18T03:12:05.925Z,37.30
2018-10-18T03:14:34.751Z,37.30
2018-10-18T03:17:03.595Z,37.30
2018-10-18T03:19:32.460Z,37.30
2018-10-18T03:22:01.316Z,37.30
2018-10-18T03:24:32.955Z,37.30
2018-10-18T03:27:03.120Z,37.30
2018-10-18T03:29:32.015Z,37.30
2018-10-18T03:32:01.136Z,37.30
2018-10-18T03:34:30.008Z,37.40
2018-10-18T03:36:58.835Z,37.30
2018-10-18T03:39:28.068Z,37.30
2018-10-18T03:41:56.941Z,37.30
2018-10-18T03:44:25.795Z,37.20
2018-10-18T03:46:54.628Z,37.30
2018-10-18T03:49:23.871Z,37.20
2018-10-18T03:51:53.619Z,37.30
2018-10-18T03:54:22.866Z,37.30
2018-10-18T03:56:51.768Z,37.30
2018-10-18T03:59:20.656Z,37.30
2018-10-18T04:01:49.491Z,37.20
2018-10-18T04:04:18.838Z,37.20
2018-10-18T04:06:47.703Z,37.10
2018-10-18T04:09:16.541Z,37.20
2018-10-18T04:11:47.043Z,37.20
2018-10-18T04:14:15.898Z,37.10
2018-10-18T04:16:44.748Z,37.70
2018-10-18T04:19:14.227Z,37.10
2018-10-18T04:21:44.653Z,37.10
2018-10-18T04:24:13.502Z,37.10
2018-10-18T04:26:42.561Z,37.20
2018-10-18T04:29:11.421Z,37.10
2018-10-18T04:31:40.326Z,37.30
2018-10-18T04:34:09.209Z,37.20
2018-10-18T04:36:38.100Z,37.10
2018-10-18T04:39:08.367Z,37.10
2018-10-18T04:41:37.227Z,37.10
2018-10-18T04:44:06.516Z,37.10
2018-10-18T04:46:35.699Z,37.10
2018-10-18T04:49:04.671Z,37.20
2018-10-18T04:51:33.567Z,37.10
2018-10-18T04:54:02.601Z,37.20
2018-10-18T04:56:31.478Z,37.10
2018-10-18T04:59:00.463Z,37.10
2018-10-18T05:01:29.330Z,37.10
2018-10-18T05:03:59.477Z,37.20
2018-10-18T05:06:28.337Z,37.20
2018-10-18T05:08:57.179Z,37.20
2018-10-18T05:11:28.074Z,37.20
2018-10-18T05:13:57.829Z,37.10
2018-10-18T05:16:26.667Z,37.10
2018-10-18T05:18:55.545Z,37.00
2018-10-18T05:21:24.378Z,37.10
2018-10-18T05:23:53.283Z,37.00
2018-10-18T05:26:22.599Z,37.00
2018-10-18T05:28:51.637Z,37.10
2018-10-18T05:31:20.584Z,37.10
2018-10-18T05:33:49.705Z,37.10
2018-10-18T05:36:18.565Z,37.00
2018-10-18T05:38:48.371Z,36.90
2018-10-18T05:41:17.214Z,36.90
2018-10-18T05:43:46.080Z,36.80
2018-10-18T05:46:14.923Z,36.80
2018-10-18T05:48:43.761Z,36.70
2018-10-18T05:51:13.129Z,36.80
2018-10-18T05:53:43.796Z,36.70
2018-10-18T05:56:12.483Z,36.60
2018-10-18T05:58:41.469Z,36.80
2018-10-18T06:01:10.345Z,36.50
2018-10-18T06:03:39.190Z,36.50
2018-10-18T06:06:10.138Z,36.50
2018-10-18T06:08:38.975Z,36.50
2018-10-18T06:11:22.280Z,36.60
2018-10-18T06:13:51.571Z,36.60
2018-10-18T06:16:20.431Z,36.60
2018-10-18T06:18:49.317Z,36.80
2018-10-18T06:21:19.463Z,37.10
2018-10-18T06:23:48.333Z,36.20
2018-10-18T06:26:17.616Z,36.70
2018-10-18T06:28:48.044Z,36.70
2018-10-18T06:31:17.093Z,37.40
2018-10-18T06:33:47.601Z,38.50
2018-10-18T06:36:16.493Z,38.20
2018-10-18T06:38:48.444Z,38.00
2018-10-18T06:41:17.383Z,38.00
2018-10-18T06:43:46.591Z,38.00
2018-10-18T06:46:15.442Z,38.10
2018-10-18T06:48:44.326Z,38.10
2018-10-18T06:51:13.728Z,37.90
2018-10-18T06:55:09.414Z,37.90
2018-10-18T06:57:39.081Z,37.80
2018-10-18T07:00:11.697Z,38.00
2018-10-18T07:02:43.997Z,37.70
2018-10-18T07:05:13.964Z,37.50
2018-10-18T07:08:45.604Z,37.30
2018-10-18T07:11:17.151Z,37.20
2018-10-18T07:13:46.060Z,37.20
2018-10-18T07:16:15.011Z,37.10
2018-10-18T07:18:44.173Z,36.80
2018-10-18T07:21:13.143Z,36.80
2018-10-18T07:23:44.477Z,36.80
2018-10-18T07:26:13.407Z,36.50
2018-10-18T07:28:42.403Z,36.50
2018-10-18T07:31:11.282Z,36.50
2018-10-18T07:33:41.243Z,36.30
2018-10-18T07:36:10.187Z,36.40
2018-10-18T07:38:38.959Z,36.10
2018-10-18T07:41:08.127Z,35.70
2018-10-18T07:43:36.939Z,35.70
2018-10-18T07:46:05.867Z,35.40
2018-10-18T07:48:34.796Z,35.10
2018-10-18T07:51:03.731Z,36.40
2018-10-18T07:53:35.295Z,36.40
2018-10-18T07:56:04.231Z,36.30
2018-10-18T07:58:33.102Z,36.40
2018-10-18T08:01:02.490Z,36.50
2018-10-18T08:03:31.995Z,36.50
2018-10-18T08:06:01.400Z,36.60
2018-10-18T08:08:30.264Z,36.60
2018-10-18T08:11:01.617Z,36.60
2018-10-18T08:13:31.089Z,36.50
2018-10-18T08:15:59.944Z,36.70
2018-10-18T08:18:28.912Z,35.80
2018-10-18T08:20:58.878Z,35.40
2018-10-18T08:23:27.836Z,35.10
2018-10-18T08:25:56.715Z,35.20
2018-10-18T08:28:25.713Z,35.00
2018-10-18T08:30:55.051Z,34.80
2018-10-18T08:33:25.275Z,35.20
2018-10-18T08:35:54.439Z,34.60
2018-10-18T08:38:23.780Z,34.50
2018-10-18T08:40:52.671Z,34.50
2018-10-18T08:43:22.316Z,34.30
2018-10-18T08:45:51.687Z,34.20
2018-10-18T08:48:22.371Z,34.30
2018-10-18T08:50:51.216Z,34.50
2018-10-18T08:53:20.108Z,34.50
2018-10-18T08:55:49.609Z,34.70
2018-10-18T08:58:18.502Z,34.80
2018-10-18T09:00:47.768Z,34.90
2018-10-18T09:03:17.172Z,34.80
2018-10-18T09:05:46.046Z,34.80
2018-10-18T09:08:14.911Z,34.70
2018-10-18T09:10:45.323Z,34.80
2018-10-18T09:13:14.437Z,34.70
2018-10-18T09:15:44.593Z,34.80
2018-10-18T09:18:13.465Z,34.90
2018-10-18T09:20:42.419Z,34.90
2018-10-18T09:23:11.300Z,34.90
2018-10-18T09:25:40.434Z,34.90
2018-10-18T09:28:09.569Z,34.90
2018-10-18T09:30:38.444Z,34.90
2018-10-18T09:33:07.354Z,35.00
2018-10-18T09:35:36.196Z,35.00
2018-10-18T09:38:05.832Z,35.00
2018-10-18T09:40:36.572Z,35.00
2018-10-18T09:43:05.977Z,34.70
2018-10-18T09:45:34.776Z,34.80
2018-10-18T09:48:03.642Z,34.70
2018-10-18T09:50:32.517Z,34.90
2018-10-18T09:53:01.530Z,35.00
2018-10-18T09:55:30.378Z,34.90
2018-10-18T09:57:59.188Z,34.80
2018-10-18T10:00:33.953Z,34.90
2018-10-18T10:03:08.292Z,34.70
2018-10-18T10:05:37.180Z,34.50
2018-10-18T10:08:06.175Z,34.50
2018-10-18T10:10:36.686Z,34.50
2018-10-18T10:13:06.141Z,34.60
2018-10-18T10:15:36.512Z,34.70
2018-10-18T10:18:06.054Z,34.80
2018-10-18T10:20:34.887Z,35.10
2018-10-18T10:23:04.022Z,35.20
2018-10-18T10:25:33.383Z,35.70
2018-10-18T10:28:03.054Z,35.20
2018-10-18T10:30:31.997Z,35.20
2018-10-18T10:33:02.763Z,35.30
2018-10-18T10:35:31.566Z,35.30
2018-10-18T10:38:00.929Z,35.50
2018-10-18T10:40:29.762Z,35.50
2018-10-18T10:42:58.679Z,35.50
2018-10-18T10:52:26.702Z,35.60
2018-10-18T10:54:55.988Z,37.10
2018-10-18T10:57:25.185Z,36.90
2018-10-18T10:59:54.157Z,36.40
2018-10-18T11:02:24.947Z,36.20
2018-10-18T11:04:53.791Z,36.00
2018-10-18T11:07:22.921Z,35.80
2018-10-18T11:09:51.828Z,35.80
2018-10-18T11:12:21.362Z,36.00
2018-10-18T11:14:50.374Z,35.50
2018-10-18T11:17:19.277Z,35.20
2018-10-18T11:19:48.104Z,35.20
2018-10-18T11:22:16.969Z,35.10
2018-10-18T11:24:46.010Z,35.10
2018-10-18T11:27:14.893Z,35.10
2018-10-18T11:29:43.928Z,35.00
2018-10-18T11:32:12.793Z,35.00
2018-10-18T11:34:42.187Z,35.00
2018-10-18T11:37:11.452Z,34.90
2018-10-18T11:39:40.287Z,35.40
2018-10-18T11:42:10.658Z,34.90
2018-10-18T11:44:40.324Z,35.00
2018-10-18T11:47:11.775Z,36.50
2018-10-18T11:49:42.155Z,36.50
2018-10-18T11:52:11.151Z,36.50
2018-10-18T11:54:39.896Z,36.60
2018-10-18T11:57:08.735Z,36.50
2018-10-18T11:59:37.743Z,36.40
2018-10-18T12:02:06.935Z,36.40
2018-10-18T12:04:35.634Z,36.40
2018-10-18T12:07:05.352Z,36.40
2018-10-18T12:09:35.398Z,36.40
2018-10-18T12:12:06.942Z,36.50
2018-10-18T12:14:35.799Z,36.40
2018-10-18T12:17:05.229Z,36.40
2018-10-18T12:19:34.172Z,36.60
2018-10-18T12:22:03.599Z,36.70
2018-10-18T12:24:32.542Z,37.10
2018-10-18T12:31:49.718Z,37.50
2018-10-18T12:34:19.728Z,37.90
2018-10-18T12:36:48.653Z,37.60
2018-10-18T12:39:17.537Z,37.80
2018-10-18T12:41:46.383Z,37.60
2018-10-18T12:44:19.097Z,37.50
2018-10-18T12:46:59.819Z,37.40
2018-10-18T12:49:28.706Z,37.30
2018-10-18T12:51:57.543Z,37.50
2018-10-18T12:54:26.901Z,37.70
2018-10-18T12:56:55.988Z,37.60
2018-10-18T12:59:24.835Z,37.70
2018-10-18T13:01:53.756Z,37.70
2018-10-18T13:04:22.577Z,37.70
2018-10-18T13:06:51.427Z,37.90
2018-10-18T13:09:20.413Z,38.50
2018-10-18T13:11:51.957Z,38.00
2018-10-18T13:14:20.767Z,37.70
2018-10-18T13:16:50.500Z,37.70
2018-10-18T13:19:20.029Z,37.60
2018-10-18T13:21:49.296Z,37.70
2018-10-18T13:24:18.366Z,37.80
2018-10-18T13:26:47.234Z,37.90
2018-10-18T13:29:16.154Z,37.80
2018-10-18T13:31:46.796Z,37.70
2018-10-18T13:34:15.793Z,37.60
2018-10-18T13:36:44.660Z,37.30
2018-10-18T13:39:14.706Z,37.10
2018-10-18T13:41:43.515Z,37.00
2018-10-18T13:44:12.504Z,37.10
2018-10-18T13:46:41.312Z,37.00
2018-10-18T13:49:10.172Z,36.80
2018-10-18T13:51:39.849Z,36.80
2018-10-18T13:54:10.196Z,37.00
2018-10-18T13:56:39.289Z,37.00
2018-10-18T13:59:19.722Z,37.00
2018-10-18T14:01:48.495Z,37.00
2018-10-18T14:04:17.744Z,37.00
2018-10-18T14:06:47.212Z,36.80
2018-10-18T14:09:16.080Z,36.50
2018-10-18T14:11:46.443Z,36.70
2018-10-18T14:14:15.353Z,36.90
2018-10-18T14:16:46.061Z,36.90
2018-10-18T14:19:14.908Z,37.00
2018-10-18T14:21:43.743Z,37.00
2018-10-18T14:24:12.667Z,37.10
2018-10-18T14:26:41.569Z,37.10
2018-10-18T14:29:11.020Z,36.90
2018-10-18T14:31:41.545Z,37.00
2018-10-18T14:34:11.122Z,36.90
2018-10-18T14:36:39.979Z,37.10
2018-10-18T14:39:09.578Z,37.00
2018-10-18T14:41:38.494Z,36.90
2018-10-18T14:44:08.447Z,36.80
2018-10-18T14:46:37.479Z,36.90
2018-10-18T14:49:06.555Z,37.00
2018-10-18T14:51:35.686Z,37.30
2018-10-18T14:54:05.309Z,37.20
2018-10-18T14:56:35.160Z,37.30
2018-10-18T14:59:04.402Z,37.50
2018-10-18T15:01:35.042Z,37.50
2018-10-18T15:04:05.972Z,37.20
2018-10-18T15:06:36.075Z,37.00
2018-10-18T15:09:07.300Z,36.70
2018-10-18T15:11:37.836Z,36.50
2018-10-18T15:14:06.866Z,36.30
2018-10-18T15:16:35.707Z,36.40
2018-10-18T15:19:05.785Z,36.20
2018-10-18T15:21:34.604Z,36.30
2018-10-18T15:24:03.516Z,36.30
2018-10-18T15:26:32.538Z,36.40
2018-10-18T15:29:01.832Z,36.50
2018-10-18T15:31:32.073Z,36.50
2018-10-18T15:34:01.209Z,36.50
2018-10-18T15:36:30.029Z,36.40
2018-10-18T15:38:59.104Z,36.40
2018-10-18T15:41:27.883Z,36.30
2018-10-18T15:43:56.860Z,36.30
2018-10-18T15:46:26.168Z,36.30
2018-10-18T15:48:55.007Z,36.20
2018-10-18T15:51:23.895Z,36.20
2018-10-18T15:53:53.115Z,36.20
2018-10-18T15:56:23.421Z,36.70
2018-10-18T15:58:52.321Z,36.10
2018-10-18T16:01:23.887Z,36.10
2018-10-18T16:03:52.709Z,36.20
2018-10-18T16:06:21.666Z,36.10
2018-10-18T16:08:50.713Z,37.40
2018-10-18T16:11:20.871Z,38.40
2018-10-18T16:13:50.395Z,38.80
2018-10-18T16:16:19.285Z,39.00
2018-10-18T16:18:48.150Z,39.00
2018-10-18T16:21:17.011Z,39.10
2018-10-18T16:23:46.418Z,39.10
2018-10-18T16:26:15.316Z,39.20
2018-10-18T16:28:44.767Z,39.30
2018-10-18T16:31:16.452Z,39.30
2018-10-18T16:33:45.379Z,39.30
2018-10-18T16:36:14.176Z,39.20
2018-10-18T16:38:43.043Z,39.20
2018-10-18T16:41:12.160Z,39.20
2018-10-18T16:43:40.831Z,39.20
2018-10-18T16:46:09.733Z,39.20
2018-10-18T16:48:38.559Z,39.20
2018-10-18T16:51:07.827Z,39.20
2018-10-18T16:53:36.869Z,39.20
2018-10-18T16:56:06.536Z,39.20
2018-10-18T16:58:35.334Z,39.20
2018-10-18T17:01:06.613Z,39.20
2018-10-18T17:03:35.522Z,39.10
2018-10-18T17:06:04.412Z,39.10
2018-10-18T17:08:33.212Z,39.20
2018-10-18T17:11:04.416Z,39.20
2018-10-18T17:13:33.247Z,39.20
2018-10-18T17:16:02.092Z,39.20
2018-10-18T17:18:32.935Z,39.20
2018-10-18T17:21:01.793Z,39.20
2018-10-18T17:23:30.679Z,39.20
2018-10-18T17:26:00.364Z,39.10
2018-10-18T17:28:29.429Z,39.10
2018-10-18T17:31:00.867Z,39.20
2018-10-18T17:33:29.729Z,39.20
2018-10-18T17:35:58.594Z,39.10
2018-10-18T17:38:27.457Z,39.10
2018-10-18T17:40:56.321Z,39.10
2018-10-18T17:43:25.255Z,39.10
2018-10-18T17:45:54.244Z,39.10
2018-10-18T17:48:23.037Z,39.10
2018-10-18T17:50:51.947Z,39.10
2018-10-18T17:53:21.299Z,39.00
2018-10-18T17:55:52.243Z,39.00
2018-10-18T17:58:21.306Z,39.10
2018-10-18T18:00:50.107Z,39.00
2018-10-18T18:03:19.319Z,39.00
2018-10-18T18:05:48.437Z,39.00
2018-10-18T18:08:17.488Z,39.00
2018-10-18T18:10:49.474Z,39.00
2018-10-18T18:13:18.306Z,38.90
2018-10-18T18:15:47.215Z,38.90
2018-10-18T18:18:16.025Z,38.90
2018-10-18T18:20:45.160Z,38.90
2018-10-18T18:23:14.091Z,38.90
2018-10-18T18:25:42.939Z,38.90
2018-10-18T18:28:11.763Z,38.90
2018-10-18T18:30:40.604Z,38.90
2018-10-18T18:33:11.123Z,38.90
2018-10-18T18:35:40.591Z,38.90
2018-10-18T18:38:09.444Z,38.90
2018-10-18T18:40:38.323Z,38.90
2018-10-18T18:43:07.450Z,38.90
2018-10-18T18:45:36.809Z,38.90
2018-10-18T18:48:06.035Z,38.80
2018-10-18T18:50:34.910Z,38.80
2018-10-18T18:53:04.891Z,38.70
2018-10-18T18:55:34.458Z,38.70
2018-10-18T18:58:03.642Z,38.80
2018-10-18T19:00:32.483Z,38.90
2018-10-18T19:03:01.369Z,38.80
2018-10-18T19:05:30.208Z,38.80
2018-10-18T19:07:59.083Z,38.80
2018-10-18T19:10:30.111Z,38.80
2018-10-18T19:12:59.413Z,38.80
2018-10-18T19:15:28.210Z,38.80
2018-10-18T19:17:57.067Z,38.70
2018-10-18T19:20:25.896Z,38.80
2018-10-18T19:22:54.901Z,38.80
2018-10-18T19:25:24.414Z,38.80
2018-10-18T19:27:53.918Z,38.70
2018-10-18T19:30:22.772Z,38.70
2018-10-18T19:32:53.915Z,38.70
2018-10-18T19:35:22.773Z,38.70
2018-10-18T19:37:51.612Z,38.70
2018-10-18T19:40:20.949Z,38.70
2018-10-18T19:42:49.800Z,38.70
2018-10-18T19:45:19.697Z,38.70
2018-10-18T19:47:48.541Z,38.70
2018-10-18T19:50:17.615Z,38.60
2018-10-18T19:52:46.521Z,38.60
2018-10-18T19:55:15.155Z,39.20
2018-10-18T19:57:44.419Z,38.60
2018-10-18T20:00:13.296Z,38.60
2018-10-18T20:02:42.143Z,38.60
2018-10-18T20:05:10.987Z,38.50
2018-10-18T20:07:40.458Z,38.50
2018-10-18T20:10:10.156Z,38.60
2018-10-18T20:12:41.070Z,38.60
2018-10-18T20:15:09.963Z,38.50
2018-10-18T20:17:38.738Z,38.50
2018-10-18T20:20:08.897Z,38.50
2018-10-18T20:22:37.670Z,38.50
2018-10-18T20:25:07.516Z,38.50
2018-10-18T20:27:37.284Z,38.50
2018-10-18T20:30:08.684Z,39.00
2018-10-18T20:32:39.152Z,38.80
2018-10-18T20:35:08.269Z,38.20
2018-10-18T20:37:37.355Z,38.20
2018-10-18T20:40:08.499Z,38.20
2018-10-18T20:42:37.330Z,38.30
2018-10-18T20:45:06.809Z,38.30
2018-10-18T20:47:35.833Z,38.20
2018-10-18T20:50:04.650Z,38.20
2018-10-18T20:52:33.878Z,38.10
2018-10-18T20:55:03.677Z,38.10
2018-10-18T20:57:33.543Z,38.10
2018-10-18T21:00:02.619Z,38.20
2018-10-18T21:02:31.426Z,38.00
2018-10-18T21:05:00.563Z,38.10
2018-10-18T21:07:29.419Z,38.10
2018-10-18T21:09:58.493Z,38.00
2018-10-18T21:12:29.191Z,38.10
2018-10-18T21:14:58.401Z,38.00
2018-10-18T21:17:27.258Z,38.00
2018-10-18T21:19:56.268Z,38.10
2018-10-18T21:22:25.131Z,38.10
2018-10-18T21:24:54.059Z,38.60
2018-10-18T21:27:22.986Z,38.10
2018-10-18T21:29:53.266Z,38.00
2018-10-18T21:32:23.188Z,37.90
2018-10-18T21:34:52.383Z,37.90
2018-10-18T21:37:21.429Z,37.90
2018-10-18T21:39:50.291Z,37.90
2018-10-18T21:42:19.151Z,37.90
2018-10-18T21:44:48.282Z,37.90
2018-10-18T21:47:18.025Z,37.90
2018-10-18T21:49:47.095Z,37.90
2018-10-18T21:52:15.951Z,37.90
2018-10-18T21:54:45.096Z,37.80
2018-10-18T21:57:14.502Z,37.80
2018-10-18T21:59:43.287Z,37.80
2018-10-18T22:02:12.132Z,37.80
2018-10-18T22:04:40.971Z,37.70
2018-10-18T22:07:09.895Z,37.70
2018-10-18T22:09:39.072Z,37.70
2018-10-18T22:12:09.519Z,37.70
2018-10-18T22:14:38.399Z,37.70
2018-10-18T22:17:07.244Z,37.70
2018-10-18T22:19:36.084Z,37.60
2018-10-18T22:22:05.507Z,37.60
2018-10-18T22:24:36.841Z,37.60
2018-10-18T22:27:05.725Z,37.50
2018-10-18T22:29:34.855Z,37.50
2018-10-18T22:32:03.693Z,37.50
2018-10-18T22:34:33.704Z,37.50
2018-10-18T22:37:02.606Z,37.50
2018-10-18T22:39:31.419Z,37.50
2018-10-18T22:42:00.267Z,37.50
2018-10-18T22:44:29.107Z,37.40
2018-10-18T22:46:58.213Z,37.40
2018-10-18T22:49:27.085Z,37.40
2018-10-18T22:51:55.933Z,37.40
2018-10-18T22:54:24.778Z,37.30
2018-10-18T22:56:54.069Z,37.30
2018-10-18T22:59:24.069Z,37.30
2018-10-18T23:01:52.907Z,37.30
2018-10-18T23:04:21.763Z,37.30
2018-10-18T23:06:50.599Z,37.30
2018-10-18T23:09:19.448Z,37.30
2018-10-18T23:11:50.050Z,37.30
2018-10-18T23:14:18.997Z,37.20
2018-10-18T23:16:47.850Z,37.10
2018-10-18T23:19:16.990Z,37.60
2018-10-18T23:21:48.281Z,37.10
2018-10-18T23:24:17.260Z,37.10
2018-10-18T23:26:46.169Z,37.10
2018-10-18T23:29:15.159Z,37.60
2018-10-18T23:31:43.909Z,37.10
2018-10-18T23:34:14.156Z,37.10
2018-10-18T23:36:42.996Z,37.10
2018-10-18T23:39:12.063Z,37.10
2018-10-18T23:41:41.214Z,37.10
2018-10-18T23:44:10.163Z,37.10
2018-10-18T23:46:39.124Z,37.10
2018-10-18T23:49:07.991Z,37.00
2018-10-18T23:51:37.082Z,37.00
2018-10-18T23:54:06.123Z,37.10
2018-10-18T23:56:35.051Z,37.10
2018-10-18T23:59:04.748Z,37.00
